Accueil
METAR-TAF:

METAR-TAF

Aéroports :

Aéroport de Lydd

Lydd, Angleterre

latitude: 50-57N, longitude: 000-56E, altitude: 3 m

Observation

Le bulletin a été fait il y a 38 minutes, à 07:50 UTC
Vent 13 kt de est/sud-est
Température 8°C
Humidité 81%
Pression 1027 hPa
Visibilité 10 km ou plus

METAR: EGMD 170750Z AUTO 11013KT 9999 NCD 08/05 Q1027

Heure: 08:28 (08:28 UTC)

Prévision

Le bulletin a été fait il y a 3 heures et 21 minutes, à 05:07 UTC
Prévision valable du 17 à 06 UTC au 17 à 15 UTC
Vent 9 kt de est
Visibilité: 8000 m
Nuages fragmentés à une hauteur de 1200 ft
Evoluant progressivement
du 17 à 06 UTC au 17 à 09 UTC
Visibilité 10 km ou plus
Quelques nuages à une hauteur de 1200 ft

TAF: EGMD 170507Z 1706/1715 09009KT 8000 BKN012 BECMG 1706/1709 9999 FEW012

Observations et prévisions météorologiques de plus de 4000 aéroports (messages METAR et TAF).

Les stations disponibles sont représentées par des disques jaunes et rouges sur la carte.

Passer la souris dessus pour voir le nom de la station.

Cliquer dessus pour voir les observations et prévisions météorologiques.

Pour changer de carte: cliquez sur les boutons verts avec une croix noire pour zoomer, sur le bouton vert avec un tiret pour effectuer un zoom arrière, ou sur les flèches vertes pour les cartes adjacentes.


METAR-TAF: